sensor_id;sensor_type;location;lat;lon;timestamp;temperature;humidity
21417;DHT22;10869;52.238;10.716;2022-08-21T05:45:04;14.40;99.90
21417;DHT22;10869;52.238;10.716;2022-08-21T05:47:36;14.50;99.90
21417;DHT22;10869;52.238;10.716;2022-08-21T05:50:02;14.60;99.90
21417;DHT22;10869;52.238;10.716;2022-08-21T05:52:28;14.70;99.90
21417;DHT22;10869;52.238;10.716;2022-08-21T05:54:54;14.90;99.90
21417;DHT22;10869;52.238;10.716;2022-08-21T06:00:44;15.30;99.90
21417;DHT22;10869;52.238;10.716;2022-08-21T06:03:19;15.50;99.90
21417;DHT22;10869;52.238;10.716;2022-08-21T06:05:45;15.80;99.90
21417;DHT22;10869;52.238;10.716;2022-08-21T06:08:11;16.00;99.90
21417;DHT22;10869;52.238;10.716;2022-08-21T06:10:37;16.30;99.90
21417;DHT22;10869;52.238;10.716;2022-08-21T06:13:03;16.50;99.90
21417;DHT22;10869;52.238;10.716;2022-08-21T06:15:34;16.80;99.90
21417;DHT22;10869;52.238;10.716;2022-08-21T06:21:22;17.20;99.90
21417;DHT22;10869;52.238;10.716;2022-08-21T06:27:30;17.70;99.90
21417;DHT22;10869;52.238;10.716;2022-08-21T06:29:57;18.10;99.90
21417;DHT22;10869;52.238;10.716;2022-08-21T06:32:51;18.30;99.90
21417;DHT22;10869;52.238;10.716;2022-08-21T06:35:39;18.60;99.90
21417;DHT22;10869;52.238;10.716;2022-08-21T06:38:08;18.90;99.90
21417;DHT22;10869;52.238;10.716;2022-08-21T06:43:43;19.20;99.90
21417;DHT22;10869;52.238;10.716;2022-08-21T06:49:31;19.40;99.90
21417;DHT22;10869;52.238;10.716;2022-08-21T06:51:57;19.50;99.90
21417;DHT22;10869;52.238;10.716;2022-08-21T06:54:22;19.40;99.90
21417;DHT22;10869;52.238;10.716;2022-08-21T06:56:48;19.30;99.90
21417;DHT22;10869;52.238;10.716;2022-08-21T06:59:14;19.30;99.90
21417;DHT22;10869;52.238;10.716;2022-08-21T07:01:40;19.50;99.90
21417;DHT22;10869;52.238;10.716;2022-08-21T07:04:07;19.70;99.90
21417;DHT22;10869;52.238;10.716;2022-08-21T07:06:33;19.90;99.90
21417;DHT22;10869;52.238;10.716;2022-08-21T07:08:58;20.10;99.90
21417;DHT22;10869;52.238;10.716;2022-08-21T07:14:46;20.30;99.90
21417;DHT22;10869;52.238;10.716;2022-08-21T07:20:34;20.80;99.90
21417;DHT22;10869;52.238;10.716;2022-08-21T07:23:03;21.00;99.90
21417;DHT22;10869;52.238;10.716;2022-08-21T07:25:30;20.90;99.90
21417;DHT22;10869;52.238;10.716;2022-08-21T07:31:20;20.90;99.90
21417;DHT22;10869;52.238;10.716;2022-08-21T07:33:50;21.00;99.90
21417;DHT22;10869;52.238;10.716;2022-08-21T07:39:24;21.50;99.20
21417;DHT22;10869;52.238;10.716;2022-08-21T07:41:50;21.80;99.40
21417;DHT22;10869;52.238;10.716;2022-08-21T07:44:16;21.90;98.70
21417;DHT22;10869;52.238;10.716;2022-08-21T07:46:42;21.80;98.30
21417;DHT22;10869;52.238;10.716;2022-08-21T07:49:08;21.70;98.20
21417;DHT22;10869;52.238;10.716;2022-08-21T07:54:55;21.60;98.40
21417;DHT22;10869;52.238;10.716;2022-08-21T07:57:21;21.60;98.10
21417;DHT22;10869;52.238;10.716;2022-08-21T08:03:00;21.40;97.80
21417;DHT22;10869;52.238;10.716;2022-08-21T08:12:07;21.30;98.70
21417;DHT22;10869;52.238;10.716;2022-08-21T08:17:54;21.20;98.40
21417;DHT22;10869;52.238;10.716;2022-08-21T08:20:20;21.30;98.40
21417;DHT22;10869;52.238;10.716;2022-08-21T08:22:47;21.60;98.00
21417;DHT22;10869;52.238;10.716;2022-08-21T08:25:14;22.00;98.20
21417;DHT22;10869;52.238;10.716;2022-08-21T08:27:41;22.30;98.20
21417;DHT22;10869;52.238;10.716;2022-08-21T08:30:10;22.40;97.80
21417;DHT22;10869;52.238;10.716;2022-08-21T08:35:58;22.80;97.10
21417;DHT22;10869;52.238;10.716;2022-08-21T08:41:48;22.90;96.50
21417;DHT22;10869;52.238;10.716;2022-08-21T08:44:16;23.10;96.10
21417;DHT22;10869;52.238;10.716;2022-08-21T08:46:48;23.20;95.50
21417;DHT22;10869;52.238;10.716;2022-08-21T08:49:23;23.30;95.80
21417;DHT22;10869;52.238;10.716;2022-08-21T08:52:23;23.50;95.60
21417;DHT22;10869;52.238;10.716;2022-08-21T08:55:02;23.60;95.60
21417;DHT22;10869;52.238;10.716;2022-08-21T08:57:29;23.70;95.60
21417;DHT22;10869;52.238;10.716;2022-08-21T08:59:59;23.80;95.20
21417;DHT22;10869;52.238;10.716;2022-08-21T09:05:27;24.10;94.80
21417;DHT22;10869;52.238;10.716;2022-08-21T09:11:07;24.20;93.90
21417;DHT22;10869;52.238;10.716;2022-08-21T09:19:21;23.30;96.00
21417;DHT22;10869;52.238;10.716;2022-08-21T09:25:30;23.10;96.80
21417;DHT22;10869;52.238;10.716;2022-08-21T09:27:58;23.10;97.30
21417;DHT22;10869;52.238;10.716;2022-08-21T09:30:30;23.00;97.50
21417;DHT22;10869;52.238;10.716;2022-08-21T09:32:57;23.10;97.90
21417;DHT22;10869;52.238;10.716;2022-08-21T09:35:24;23.20;97.80
21417;DHT22;10869;52.238;10.716;2022-08-21T09:43:00;23.00;98.00
21417;DHT22;10869;52.238;10.716;2022-08-21T09:45:27;23.00;98.00
21417;DHT22;10869;52.238;10.716;2022-08-21T09:47:55;23.00;98.20
21417;DHT22;10869;52.238;10.716;2022-08-21T09:58:20;23.50;98.70
21417;DHT22;10869;52.238;10.716;2022-08-21T10:38:21;23.40;97.10
21417;DHT22;10869;52.238;10.716;2022-08-21T10:41:07;23.10;97.50
21417;DHT22;10869;52.238;10.716;2022-08-21T10:47:04;22.80;98.00
21417;DHT22;10869;52.238;10.716;2022-08-21T10:52:33;23.10;98.20
21417;DHT22;10869;52.238;10.716;2022-08-21T10:55:02;23.60;97.20
21417;DHT22;10869;52.238;10.716;2022-08-21T10:58:04;24.30;96.10
21417;DHT22;10869;52.238;10.716;2022-08-21T11:00:48;24.60;95.50
21417;DHT22;10869;52.238;10.716;2022-08-21T11:03:52;24.30;95.20
21417;DHT22;10869;52.238;10.716;2022-08-21T11:06:27;24.50;95.20
21417;DHT22;10869;52.238;10.716;2022-08-21T11:09:13;25.20;95.20
21417;DHT22;10869;52.238;10.716;2022-08-21T11:12:16;25.60;93.30
21417;DHT22;10869;52.238;10.716;2022-08-21T11:15:50;26.00;92.90
21417;DHT22;10869;52.238;10.716;2022-08-21T11:17:49;26.30;92.80
21417;DHT22;10869;52.238;10.716;2022-08-21T11:20:51;26.70;91.40
21417;DHT22;10869;52.238;10.716;2022-08-21T11:23:35;26.80;91.60
21417;DHT22;10869;52.238;10.716;2022-08-21T11:26:07;27.00;91.10
21417;DHT22;10869;52.238;10.716;2022-08-21T11:28:50;27.00;90.60
21417;DHT22;10869;52.238;10.716;2022-08-21T11:45:43;26.60;87.80
21417;DHT22;10869;52.238;10.716;2022-08-21T11:51:15;26.80;87.40
21417;DHT22;10869;52.238;10.716;2022-08-21T11:56:41;26.40;87.60
21417;DHT22;10869;52.238;10.716;2022-08-21T11:59:23;26.20;87.60
21417;DHT22;10869;52.238;10.716;2022-08-21T12:05:45;26.20;87.30
21417;DHT22;10869;52.238;10.716;2022-08-21T12:08:34;26.60;83.80
21417;DHT22;10869;52.238;10.716;2022-08-21T12:11:22;26.40;85.80
21417;DHT22;10869;52.238;10.716;2022-08-21T12:16:37;26.40;86.60
21417;DHT22;10869;52.238;10.716;2022-08-21T12:24:51;27.70;86.70
21417;DHT22;10869;52.238;10.716;2022-08-21T12:27:53;27.90;85.90
21417;DHT22;10869;52.238;10.716;2022-08-21T12:30:41;28.20;84.60
21417;DHT22;10869;52.238;10.716;2022-08-21T12:33:32;27.70;82.50
21417;DHT22;10869;52.238;10.716;2022-08-21T12:36:15;27.00;83.00
21417;DHT22;10869;52.238;10.716;2022-08-21T12:38:54;26.60;84.00
21417;DHT22;10869;52.238;10.716;2022-08-21T12:41:32;26.60;84.90
21417;DHT22;10869;52.238;10.716;2022-08-21T12:44:12;27.10;86.90
21417;DHT22;10869;52.238;10.716;2022-08-21T12:46:57;27.40;85.30
21417;DHT22;10869;52.238;10.716;2022-08-21T12:49:32;27.80;83.50
21417;DHT22;10869;52.238;10.716;2022-08-21T12:55:28;26.80;85.00
21417;DHT22;10869;52.238;10.716;2022-08-21T12:57:54;27.20;85.40
21417;DHT22;10869;52.238;10.716;2022-08-21T13:00:23;27.30;82.70
21417;DHT22;10869;52.238;10.716;2022-08-21T13:02:50;26.80;81.30
21417;DHT22;10869;52.238;10.716;2022-08-21T13:05:36;26.80;83.40
21417;DHT22;10869;52.238;10.716;2022-08-21T13:08:08;27.00;83.90
21417;DHT22;10869;52.238;10.716;2022-08-21T13:10:36;26.70;83.80
21417;DHT22;10869;52.238;10.716;2022-08-21T13:13:04;27.00;83.50
21417;DHT22;10869;52.238;10.716;2022-08-21T13:15:33;27.20;81.20
21417;DHT22;10869;52.238;10.716;2022-08-21T13:21:21;26.20;81.50
21417;DHT22;10869;52.238;10.716;2022-08-21T13:23:47;26.30;80.20
21417;DHT22;10869;52.238;10.716;2022-08-21T13:29:35;26.80;80.10
21417;DHT22;10869;52.238;10.716;2022-08-21T13:35:28;27.10;79.30
21417;DHT22;10869;52.238;10.716;2022-08-21T13:41:20;26.90;80.00
21417;DHT22;10869;52.238;10.716;2022-08-21T13:47:14;26.20;80.30
21417;DHT22;10869;52.238;10.716;2022-08-21T13:53:06;26.10;80.30
21417;DHT22;10869;52.238;10.716;2022-08-21T13:55:42;26.00;80.30
21417;DHT22;10869;52.238;10.716;2022-08-21T14:01:51;25.50;81.00
21417;DHT22;10869;52.238;10.716;2022-08-21T14:07:42;25.40;81.70
21417;DHT22;10869;52.238;10.716;2022-08-21T14:10:16;25.80;80.20
21417;DHT22;10869;52.238;10.716;2022-08-21T14:16:13;25.90;79.30
21417;DHT22;10869;52.238;10.716;2022-08-21T14:19:19;26.00;79.10
21417;DHT22;10869;52.238;10.716;2022-08-21T14:21:45;26.30;79.40
21417;DHT22;10869;52.238;10.716;2022-08-21T14:30:29;26.50;77.80
21417;DHT22;10869;52.238;10.716;2022-08-21T14:32:56;26.00;77.30
21417;DHT22;10869;52.238;10.716;2022-08-21T14:35:22;26.10;78.00
21417;DHT22;10869;52.238;10.716;2022-08-21T14:37:49;26.10;75.50
21417;DHT22;10869;52.238;10.716;2022-08-21T14:40:16;26.20;76.20
21417;DHT22;10869;52.238;10.716;2022-08-21T14:42:43;26.30;76.70
21417;DHT22;10869;52.238;10.716;2022-08-21T14:45:14;26.50;76.50
21417;DHT22;10869;52.238;10.716;2022-08-21T14:47:41;26.70;76.60
21417;DHT22;10869;52.238;10.716;2022-08-21T14:50:09;26.80;76.40
21417;DHT22;10869;52.238;10.716;2022-08-21T14:52:35;26.90;74.90
21417;DHT22;10869;52.238;10.716;2022-08-21T14:55:05;27.00;76.50
21417;DHT22;10869;52.238;10.716;2022-08-21T14:57:33;27.00;75.40
21417;DHT22;10869;52.238;10.716;2022-08-21T15:00:00;27.00;75.30
21417;DHT22;10869;52.238;10.716;2022-08-21T15:02:26;27.10;75.50
21417;DHT22;10869;52.238;10.716;2022-08-21T15:04:52;27.20;76.20
21417;DHT22;10869;52.238;10.716;2022-08-21T15:07:18;27.10;75.50
21417;DHT22;10869;52.238;10.716;2022-08-21T15:09:46;27.20;76.10
21417;DHT22;10869;52.238;10.716;2022-08-21T15:12:13;27.20;75.30
21417;DHT22;10869;52.238;10.716;2022-08-21T15:14:40;27.20;75.40
21417;DHT22;10869;52.238;10.716;2022-08-21T15:17:08;27.20;74.50
21417;DHT22;10869;52.238;10.716;2022-08-21T15:22:57;27.00;74.30
21417;DHT22;10869;52.238;10.716;2022-08-21T15:25:22;26.80;72.60
21417;DHT22;10869;52.238;10.716;2022-08-21T15:27:48;26.80;75.90
21417;DHT22;10869;52.238;10.716;2022-08-21T15:30:14;26.80;76.80
21417;DHT22;10869;52.238;10.716;2022-08-21T15:32:40;26.90;74.70
21417;DHT22;10869;52.238;10.716;2022-08-21T15:38:28;26.80;75.40
21417;DHT22;10869;52.238;10.716;2022-08-21T15:40:55;26.70;72.70
21417;DHT22;10869;52.238;10.716;2022-08-21T15:43:29;26.60;73.90
21417;DHT22;10869;52.238;10.716;2022-08-21T15:49:17;26.50;75.60
21417;DHT22;10869;52.238;10.716;2022-08-21T15:51:43;26.30;75.40
21417;DHT22;10869;52.238;10.716;2022-08-21T15:54:09;26.30;75.80
21417;DHT22;10869;52.238;10.716;2022-08-21T15:56:37;26.30;75.50
21417;DHT22;10869;52.238;10.716;2022-08-21T15:59:14;26.40;76.10
21417;DHT22;10869;52.238;10.716;2022-08-21T16:01:41;26.30;74.40
21417;DHT22;10869;52.238;10.716;2022-08-21T16:06:47;26.20;76.90
21417;DHT22;10869;52.238;10.716;2022-08-21T16:14:29;25.90;74.50
21417;DHT22;10869;52.238;10.716;2022-08-21T16:20:26;25.70;74.60
21417;DHT22;10869;52.238;10.716;2022-08-21T16:22:54;25.60;74.90
21417;DHT22;10869;52.238;10.716;2022-08-21T16:25:21;25.50;76.20
21417;DHT22;10869;52.238;10.716;2022-08-21T16:27:51;25.50;77.00
21417;DHT22;10869;52.238;10.716;2022-08-21T16:30:19;25.50;77.50
21417;DHT22;10869;52.238;10.716;2022-08-21T16:36:08;25.40;75.00
21417;DHT22;10869;52.238;10.716;2022-08-21T16:41:57;25.10;78.60
21417;DHT22;10869;52.238;10.716;2022-08-21T16:44:23;25.00;77.20
21417;DHT22;10869;52.238;10.716;2022-08-21T16:50:14;24.60;77.70
21417;DHT22;10869;52.238;10.716;2022-08-21T16:52:40;24.40;79.00
21417;DHT22;10869;52.238;10.716;2022-08-21T16:55:06;24.20;79.90
21417;DHT22;10869;52.238;10.716;2022-08-21T16:57:32;24.00;81.90
21417;DHT22;10869;52.238;10.716;2022-08-21T17:03:25;23.70;81.00
21417;DHT22;10869;52.238;10.716;2022-08-21T17:05:53;23.70;81.90
21417;DHT22;10869;52.238;10.716;2022-08-21T17:11:42;23.60;81.70
21417;DHT22;10869;52.238;10.716;2022-08-21T17:14:19;23.50;83.60
21417;DHT22;10869;52.238;10.716;2022-08-21T17:16:48;23.50;83.20
21417;DHT22;10869;52.238;10.716;2022-08-21T17:19:15;23.40;84.00
21417;DHT22;10869;52.238;10.716;2022-08-21T17:21:41;23.40;83.90
21417;DHT22;10869;52.238;10.716;2022-08-21T17:24:07;23.30;84.00
21417;DHT22;10869;52.238;10.716;2022-08-21T17:26:33;23.30;83.80
21417;DHT22;10869;52.238;10.716;2022-08-21T17:28:59;23.20;84.40
21417;DHT22;10869;52.238;10.716;2022-08-21T17:31:25;23.20;83.80
21417;DHT22;10869;52.238;10.716;2022-08-21T17:33:52;23.20;84.20
21417;DHT22;10869;52.238;10.716;2022-08-21T17:36:24;23.10;84.50
21417;DHT22;10869;52.238;10.716;2022-08-21T17:38:50;23.10;85.10
21417;DHT22;10869;52.238;10.716;2022-08-21T17:41:17;23.00;84.50
21417;DHT22;10869;52.238;10.716;2022-08-21T17:47:07;22.90;86.30
21417;DHT22;10869;52.238;10.716;2022-08-21T17:49:34;22.70;86.50
21417;DHT22;10869;52.238;10.716;2022-08-21T17:52:00;22.70;85.70
21417;DHT22;10869;52.238;10.716;2022-08-21T17:54:26;22.60;86.60
21417;DHT22;10869;52.238;10.716;2022-08-21T17:56:54;22.50;86.90
21417;DHT22;10869;52.238;10.716;2022-08-21T17:59:21;22.30;87.10
21417;DHT22;10869;52.238;10.716;2022-08-21T18:07:58;21.90;88.20
21417;DHT22;10869;52.238;10.716;2022-08-21T18:10:24;21.80;88.30
21417;DHT22;10869;52.238;10.716;2022-08-21T18:12:50;21.70;89.40
21417;DHT22;10869;52.238;10.716;2022-08-21T18:15:18;21.60;90.20
21417;DHT22;10869;52.238;10.716;2022-08-21T18:21:06;21.40;90.40
21417;DHT22;10869;52.238;10.716;2022-08-21T18:23:32;21.20;91.10
21417;DHT22;10869;52.238;10.716;2022-08-21T18:26:01;21.00;91.50
21417;DHT22;10869;52.238;10.716;2022-08-21T18:28:27;20.90;91.50
21417;DHT22;10869;52.238;10.716;2022-08-21T18:31:08;20.80;91.70
21417;DHT22;10869;52.238;10.716;2022-08-21T18:33:37;20.70;91.70
21417;DHT22;10869;52.238;10.716;2022-08-21T18:36:03;20.60;92.10
21417;DHT22;10869;52.238;10.716;2022-08-21T18:41:52;20.30;92.50
21417;DHT22;10869;52.238;10.716;2022-08-21T18:44:23;20.20;92.50
21417;DHT22;10869;52.238;10.716;2022-08-21T18:46:57;20.10;92.80
21417;DHT22;10869;52.238;10.716;2022-08-21T18:49:24;20.00;92.50
21417;DHT22;10869;52.238;10.716;2022-08-21T18:51:50;19.90;92.50
21417;DHT22;10869;52.238;10.716;2022-08-21T18:57:39;19.70;93.30
21417;DHT22;10869;52.238;10.716;2022-08-21T19:00:15;19.50;93.70
21417;DHT22;10869;52.238;10.716;2022-08-21T19:02:42;19.40;93.80
21417;DHT22;10869;52.238;10.716;2022-08-21T19:08:30;19.20;94.00
21417;DHT22;10869;52.238;10.716;2022-08-21T19:10:58;19.10;94.40
21417;DHT22;10869;52.238;10.716;2022-08-21T19:13:27;19.00;94.70
21417;DHT22;10869;52.238;10.716;2022-08-21T19:15:54;19.00;94.60
21417;DHT22;10869;52.238;10.716;2022-08-21T19:18:24;18.90;94.60
21417;DHT22;10869;52.238;10.716;2022-08-21T19:20:51;18.80;94.70
21417;DHT22;10869;52.238;10.716;2022-08-21T19:29:45;18.70;94.60
21417;DHT22;10869;52.238;10.716;2022-08-21T19:32:11;18.60;95.00
21417;DHT22;10869;52.238;10.716;2022-08-21T19:34:37;18.50;95.30
21417;DHT22;10869;52.238;10.716;2022-08-21T19:37:08;18.40;95.40
21417;DHT22;10869;52.238;10.716;2022-08-21T19:39:36;18.40;95.40
21417;DHT22;10869;52.238;10.716;2022-08-21T19:42:04;18.40;95.60
21417;DHT22;10869;52.238;10.716;2022-08-21T19:44:31;18.30;95.80
21417;DHT22;10869;52.238;10.716;2022-08-21T19:46:58;18.20;95.70
21417;DHT22;10869;52.238;10.716;2022-08-21T19:49:29;18.20;95.60
21417;DHT22;10869;52.238;10.716;2022-08-21T19:51:57;18.20;95.70
21417;DHT22;10869;52.238;10.716;2022-08-21T19:54:28;18.20;95.90
21417;DHT22;10869;52.238;10.716;2022-08-21T19:56:56;18.10;96.00
21417;DHT22;10869;52.238;10.716;2022-08-21T19:59:24;18.10;96.10
21417;DHT22;10869;52.238;10.716;2022-08-21T20:01:52;18.10;96.10
21417;DHT22;10869;52.238;10.716;2022-08-21T20:04:19;18.00;95.90
21417;DHT22;10869;52.238;10.716;2022-08-21T20:06:46;18.00;95.80
21417;DHT22;10869;52.238;10.716;2022-08-21T20:09:12;18.00;95.90
21417;DHT22;10869;52.238;10.716;2022-08-21T20:11:47;18.00;96.10
21417;DHT22;10869;52.238;10.716;2022-08-21T20:14:16;18.00;96.20
21417;DHT22;10869;52.238;10.716;2022-08-21T20:16:42;17.90;96.30
21417;DHT22;10869;52.238;10.716;2022-08-21T20:22:30;17.80;96.50
21417;DHT22;10869;52.238;10.716;2022-08-21T20:28:20;17.70;96.80
21417;DHT22;10869;52.238;10.716;2022-08-21T20:30:46;17.60;97.30
21417;DHT22;10869;52.238;10.716;2022-08-21T20:33:12;17.50;97.40
21417;DHT22;10869;52.238;10.716;2022-08-21T20:35:38;17.50;97.30
21417;DHT22;10869;52.238;10.716;2022-08-21T20:38:04;17.40;97.40
21417;DHT22;10869;52.238;10.716;2022-08-21T20:40:33;17.40;97.40
21417;DHT22;10869;52.238;10.716;2022-08-21T20:43:00;17.40;97.20
21417;DHT22;10869;52.238;10.716;2022-08-21T20:45:31;17.40;97.20
21417;DHT22;10869;52.238;10.716;2022-08-21T20:48:05;17.40;97.30
21417;DHT22;10869;52.238;10.716;2022-08-21T20:50:34;17.30;97.50
21417;DHT22;10869;52.238;10.716;2022-08-21T20:53:28;17.30;97.60
21417;DHT22;10869;52.238;10.716;2022-08-21T20:55:51;17.30;97.70
21417;DHT22;10869;52.238;10.716;2022-08-21T20:58:34;17.20;97.80
21417;DHT22;10869;52.238;10.716;2022-08-21T21:01:05;17.10;98.00
21417;DHT22;10869;52.238;10.716;2022-08-21T21:03:43;17.10;98.30
21417;DHT22;10869;52.238;10.716;2022-08-21T21:06:18;17.00;98.50
21417;DHT22;10869;52.238;10.716;2022-08-21T21:09:00;17.00;98.50
21417;DHT22;10869;52.238;10.716;2022-08-21T21:11:38;17.00;98.60
21417;DHT22;10869;52.238;10.716;2022-08-21T21:14:16;16.90;98.60
21417;DHT22;10869;52.238;10.716;2022-08-21T21:16:51;16.90;99.10
21417;DHT22;10869;52.238;10.716;2022-08-21T21:22:23;16.80;98.90
21417;DHT22;10869;52.238;10.716;2022-08-21T21:25:14;16.80;98.90
21417;DHT22;10869;52.238;10.716;2022-08-21T21:27:57;16.80;99.00
21417;DHT22;10869;52.238;10.716;2022-08-21T21:30:40;16.80;99.30
21417;DHT22;10869;52.238;10.716;2022-08-21T21:33:06;16.70;99.50
21417;DHT22;10869;52.238;10.716;2022-08-21T21:35:38;16.70;99.40
21417;DHT22;10869;52.238;10.716;2022-08-21T21:38:23;16.70;99.40
21417;DHT22;10869;52.238;10.716;2022-08-21T21:41:15;16.70;99.20
21417;DHT22;10869;52.238;10.716;2022-08-21T21:49:26;16.60;99.70
21417;DHT22;10869;52.238;10.716;2022-08-21T22:00:04;16.60;99.60
21417;DHT22;10869;52.238;10.716;2022-08-21T22:09:10;16.60;99.90
21417;DHT22;10869;52.238;10.716;2022-08-21T22:14:17;16.60;99.90
21417;DHT22;10869;52.238;10.716;2022-08-21T22:16:45;16.50;99.90
21417;DHT22;10869;52.238;10.716;2022-08-21T22:19:17;16.50;99.90
21417;DHT22;10869;52.238;10.716;2022-08-21T22:21:51;16.40;99.90
21417;DHT22;10869;52.238;10.716;2022-08-21T22:24:25;16.40;99.90
21417;DHT22;10869;52.238;10.716;2022-08-21T22:26:57;16.40;99.90
21417;DHT22;10869;52.238;10.716;2022-08-21T22:29:24;16.30;99.90
21417;DHT22;10869;52.238;10.716;2022-08-21T22:32:04;16.30;99.90
21417;DHT22;10869;52.238;10.716;2022-08-21T22:34:31;16.30;99.90
21417;DHT22;10869;52.238;10.716;2022-08-21T22:37:00;16.30;99.90
21417;DHT22;10869;52.238;10.716;2022-08-21T22:39:31;16.20;99.90
21417;DHT22;10869;52.238;10.716;2022-08-21T22:42:05;16.20;99.90
21417;DHT22;10869;52.238;10.716;2022-08-21T22:44:31;16.10;99.90
21417;DHT22;10869;52.238;10.716;2022-08-21T22:47:01;16.20;99.90
21417;DHT22;10869;52.238;10.716;2022-08-21T22:49:40;16.10;99.90
21417;DHT22;10869;52.238;10.716;2022-08-21T22:52:25;16.20;99.90
21417;DHT22;10869;52.238;10.716;2022-08-21T22:54:56;16.10;99.90
21417;DHT22;10869;52.238;10.716;2022-08-21T22:57:30;16.10;99.90
